sensor_id;sensor_type;location;lat;lon;timestamp;P1;P2;P0
46573;PMS5003;32299;53.366;-1.544;2023-01-29T00:01:47;30;29;
46573;PMS5003;32299;53.366;-1.544;2023-01-29T00:04:15;62;37;
46573;PMS5003;32299;53.366;-1.544;2023-01-29T00:06:42;43;34;
46573;PMS5003;32299;53.366;-1.544;2023-01-29T00:09:09;47;33;
46573;PMS5003;32299;53.366;-1.544;2023-01-29T00:11:36;51;34;
46573;PMS5003;32299;53.366;-1.544;2023-01-29T00:14:04;39;34;
46573;PMS5003;32299;53.366;-1.544;2023-01-29T00:16:31;56;35;
46573;PMS5003;32299;53.366;-1.544;2023-01-29T00:18:59;56;34;
46573;PMS5003;32299;53.366;-1.544;2023-01-29T00:21:27;33;31;
46573;PMS5003;32299;53.366;-1.544;2023-01-29T00:23:54;25;25;
46573;PMS5003;32299;53.366;-1.544;2023-01-29T00:26:21;35;25;
46573;PMS5003;32299;53.366;-1.544;2023-01-29T00:28:48;31;30;
46573;PMS5003;32299;53.366;-1.544;2023-01-29T00:31:16;47;29;
46573;PMS5003;32299;53.366;-1.544;2023-01-29T00:33:46;29;24;
46573;PMS5003;32299;53.366;-1.544;2023-01-29T00:36:15;45;31;
46573;PMS5003;32299;53.366;-1.544;2023-01-29T00:38:43;47;28;
46573;PMS5003;32299;53.366;-1.544;2023-01-29T00:41:12;36;29;
46573;PMS5003;32299;53.366;-1.544;2023-01-29T00:43:40;37;26;
46573;PMS5003;32299;53.366;-1.544;2023-01-29T00:46:08;44;32;
46573;PMS5003;32299;53.366;-1.544;2023-01-29T00:48:35;43;29;
46573;PMS5003;32299;53.366;-1.544;2023-01-29T00:51:03;34;30;
46573;PMS5003;32299;53.366;-1.544;2023-01-29T00:53:30;36;29;
46573;PMS5003;32299;53.366;-1.544;2023-01-29T00:55:57;45;31;
46573;PMS5003;32299;53.366;-1.544;2023-01-29T00:58:24;43;31;
46573;PMS5003;32299;53.366;-1.544;2023-01-29T01:00:51;30;29;
46573;PMS5003;32299;53.366;-1.544;2023-01-29T01:03:18;34;29;
46573;PMS5003;32299;53.366;-1.544;2023-01-29T01:05:45;35;26;
46573;PMS5003;32299;53.366;-1.544;2023-01-29T01:08:12;31;27;
46573;PMS5003;32299;53.366;-1.544;2023-01-29T01:10:39;43;29;
46573;PMS5003;32299;53.366;-1.544;2023-01-29T01:13:06;43;30;
46573;PMS5003;32299;53.366;-1.544;2023-01-29T01:15:34;33;30;
46573;PMS5003;32299;53.366;-1.544;2023-01-29T01:18:04;46;33;
46573;PMS5003;32299;53.366;-1.544;2023-01-29T01:20:33;35;32;
46573;PMS5003;32299;53.366;-1.544;2023-01-29T01:23:01;32;28;
46573;PMS5003;32299;53.366;-1.544;2023-01-29T01:25:29;35;30;
46573;PMS5003;32299;53.366;-1.544;2023-01-29T01:27:57;42;30;
46573;PMS5003;32299;53.366;-1.544;2023-01-29T01:30:25;40;28;
46573;PMS5003;32299;53.366;-1.544;2023-01-29T01:32:53;34;30;
46573;PMS5003;32299;53.366;-1.544;2023-01-29T01:35:20;29;26;
46573;PMS5003;32299;53.366;-1.544;2023-01-29T01:37:47;27;25;
46573;PMS5003;32299;53.366;-1.544;2023-01-29T01:40:16;28;25;
46573;PMS5003;32299;53.366;-1.544;2023-01-29T01:42:46;22;20;
46573;PMS5003;32299;53.366;-1.544;2023-01-29T01:45:17;36;23;
46573;PMS5003;32299;53.366;-1.544;2023-01-29T01:47:48;18;17;
46573;PMS5003;32299;53.366;-1.544;2023-01-29T01:50:21;36;21;
46573;PMS5003;32299;53.366;-1.544;2023-01-29T01:52:54;20;18;
46573;PMS5003;32299;53.366;-1.544;2023-01-29T01:55:26;25;15;
46573;PMS5003;32299;53.366;-1.544;2023-01-29T01:57:56;22;16;
46573;PMS5003;32299;53.366;-1.544;2023-01-29T02:00:28;12;12;
46573;PMS5003;32299;53.366;-1.544;2023-01-29T02:02:55;17;15;
46573;PMS5003;32299;53.366;-1.544;2023-01-29T02:05:23;19;16;
46573;PMS5003;32299;53.366;-1.544;2023-01-29T02:07:51;23;16;
46573;PMS5003;32299;53.366;-1.544;2023-01-29T02:10:19;11;11;
46573;PMS5003;32299;53.366;-1.544;2023-01-29T02:12:47;11;11;
46573;PMS5003;32299;53.366;-1.544;2023-01-29T02:15:14;16;15;
46573;PMS5003;32299;53.366;-1.544;2023-01-29T02:17:41;16;15;
46573;PMS5003;32299;53.366;-1.544;2023-01-29T02:20:10;10;10;
46573;PMS5003;32299;53.366;-1.544;2023-01-29T02:22:50;10;9;
46573;PMS5003;32299;53.366;-1.544;2023-01-29T02:25:35;15;11;
46573;PMS5003;32299;53.366;-1.544;2023-01-29T02:28:24;9;9;
46573;PMS5003;32299;53.366;-1.544;2023-01-29T02:31:05;9;9;
46573;PMS5003;32299;53.366;-1.544;2023-01-29T02:33:40;7;7;
46573;PMS5003;32299;53.366;-1.544;2023-01-29T02:36:17;10;7;
46573;PMS5003;32299;53.366;-1.544;2023-01-29T02:38:54;9;8;
46573;PMS5003;32299;53.366;-1.544;2023-01-29T02:41:29;9;7;
46573;PMS5003;32299;53.366;-1.544;2023-01-29T02:44:04;13;9;
46573;PMS5003;32299;53.366;-1.544;2023-01-29T02:46:43;16;15;
46573;PMS5003;32299;53.366;-1.544;2023-01-29T02:49:19;15;15;
46573;PMS5003;32299;53.366;-1.544;2023-01-29T02:51:55;31;17;
46573;PMS5003;32299;53.366;-1.544;2023-01-29T02:54:29;30;21;
46573;PMS5003;32299;53.366;-1.544;2023-01-29T02:57:04;28;21;
46573;PMS5003;32299;53.366;-1.544;2023-01-29T02:59:42;21;18;
46573;PMS5003;32299;53.366;-1.544;2023-01-29T03:02:15;33;17;
46573;PMS5003;32299;53.366;-1.544;2023-01-29T03:04:48;22;20;
46573;PMS5003;32299;53.366;-1.544;2023-01-29T03:07:24;35;21;
46573;PMS5003;32299;53.366;-1.544;2023-01-29T03:09:55;24;17;
46573;PMS5003;32299;53.366;-1.544;2023-01-29T03:12:24;23;21;
46573;PMS5003;32299;53.366;-1.544;2023-01-29T03:14:53;20;18;
46573;PMS5003;32299;53.366;-1.544;2023-01-29T03:17:25;28;23;
46573;PMS5003;32299;53.366;-1.544;2023-01-29T03:19:58;32;19;
46573;PMS5003;32299;53.366;-1.544;2023-01-29T03:22:26;14;14;
46573;PMS5003;32299;53.366;-1.544;2023-01-29T03:24:54;19;17;
46573;PMS5003;32299;53.366;-1.544;2023-01-29T03:27:23;15;14;
46573;PMS5003;32299;53.366;-1.544;2023-01-29T03:29:56;9;9;
46573;PMS5003;32299;53.366;-1.544;2023-01-29T03:32:24;13;11;
46573;PMS5003;32299;53.366;-1.544;2023-01-29T03:34:57;10;10;
46573;PMS5003;32299;53.366;-1.544;2023-01-29T03:37:28;14;11;
46573;PMS5003;32299;53.366;-1.544;2023-01-29T03:39:57;10;9;
46573;PMS5003;32299;53.366;-1.544;2023-01-29T03:42:25;8;8;
46573;PMS5003;32299;53.366;-1.544;2023-01-29T03:45:00;9;9;
46573;PMS5003;32299;53.366;-1.544;2023-01-29T03:47:39;9;8;
46573;PMS5003;32299;53.366;-1.544;2023-01-29T03:50:11;13;11;
46573;PMS5003;32299;53.366;-1.544;2023-01-29T03:52:50;13;10;
46573;PMS5003;32299;53.366;-1.544;2023-01-29T03:55:27;10;9;
46573;PMS5003;32299;53.366;-1.544;2023-01-29T03:58:03;10;10;
46573;PMS5003;32299;53.366;-1.544;2023-01-29T04:00:36;13;11;
46573;PMS5003;32299;53.366;-1.544;2023-01-29T04:03:08;15;11;
46573;PMS5003;32299;53.366;-1.544;2023-01-29T04:05:45;8;7;
46573;PMS5003;32299;53.366;-1.544;2023-01-29T04:08:18;9;9;
46573;PMS5003;32299;53.366;-1.544;2023-01-29T04:10:51;11;8;
46573;PMS5003;32299;53.366;-1.544;2023-01-29T04:13:20;16;7;
46573;PMS5003;32299;53.366;-1.544;2023-01-29T04:15:52;8;8;
46573;PMS5003;32299;53.366;-1.544;2023-01-29T04:18:23;12;11;
46573;PMS5003;32299;53.366;-1.544;2023-01-29T04:20:51;8;8;
46573;PMS5003;32299;53.366;-1.544;2023-01-29T04:23:19;8;8;
46573;PMS5003;32299;53.366;-1.544;2023-01-29T04:25:52;25;11;
46573;PMS5003;32299;53.366;-1.544;2023-01-29T04:28:32;11;10;
46573;PMS5003;32299;53.366;-1.544;2023-01-29T04:31:09;22;10;
46573;PMS5003;32299;53.366;-1.544;2023-01-29T04:33:40;10;10;
46573;PMS5003;32299;53.366;-1.544;2023-01-29T04:36:19;7;7;
46573;PMS5003;32299;53.366;-1.544;2023-01-29T04:38:57;8;8;
46573;PMS5003;32299;53.366;-1.544;2023-01-29T04:41:32;12;10;
46573;PMS5003;32299;53.366;-1.544;2023-01-29T04:44:04;12;10;
46573;PMS5003;32299;53.366;-1.544;2023-01-29T04:46:42;11;9;
46573;PMS5003;32299;53.366;-1.544;2023-01-29T04:49:17;11;11;
46573;PMS5003;32299;53.366;-1.544;2023-01-29T04:51:55;7;7;
46573;PMS5003;32299;53.366;-1.544;2023-01-29T04:54:32;29;14;
46573;PMS5003;32299;53.366;-1.544;2023-01-29T04:57:09;15;12;
46573;PMS5003;32299;53.366;-1.544;2023-01-29T04:59:43;11;11;
46573;PMS5003;32299;53.366;-1.544;2023-01-29T05:02:14;12;10;
46573;PMS5003;32299;53.366;-1.544;2023-01-29T05:04:41;12;12;
46573;PMS5003;32299;53.366;-1.544;2023-01-29T05:07:11;16;14;
46573;PMS5003;32299;53.366;-1.544;2023-01-29T05:09:41;23;12;
46573;PMS5003;32299;53.366;-1.544;2023-01-29T05:12:11;12;9;
46573;PMS5003;32299;53.366;-1.544;2023-01-29T05:14:42;25;10;
46573;PMS5003;32299;53.366;-1.544;2023-01-29T05:17:13;12;10;
46573;PMS5003;32299;53.366;-1.544;2023-01-29T05:19:41;13;11;
46573;PMS5003;32299;53.366;-1.544;2023-01-29T05:22:09;11;10;
46573;PMS5003;32299;53.366;-1.544;2023-01-29T05:24:40;10;10;
46573;PMS5003;32299;53.366;-1.544;2023-01-29T05:27:08;21;11;
46573;PMS5003;32299;53.366;-1.544;2023-01-29T05:29:43;9;9;
46573;PMS5003;32299;53.366;-1.544;2023-01-29T05:32:13;11;8;
46573;PMS5003;32299;53.366;-1.544;2023-01-29T05:34:40;25;10;
46573;PMS5003;32299;53.366;-1.544;2023-01-29T05:37:08;22;11;
46573;PMS5003;32299;53.366;-1.544;2023-01-29T05:39:36;10;9;
46573;PMS5003;32299;53.366;-1.544;2023-01-29T05:42:03;15;13;
46573;PMS5003;32299;53.366;-1.544;2023-01-29T05:44:30;13;13;
46573;PMS5003;32299;53.366;-1.544;2023-01-29T05:46:57;19;18;
46573;PMS5003;32299;53.366;-1.544;2023-01-29T05:49:24;30;16;
46573;PMS5003;32299;53.366;-1.544;2023-01-29T05:51:51;15;14;
46573;PMS5003;32299;53.366;-1.544;2023-01-29T05:54:18;15;13;
46573;PMS5003;32299;53.366;-1.544;2023-01-29T05:56:45;16;14;
46573;PMS5003;32299;53.366;-1.544;2023-01-29T05:59:11;11;10;
46573;PMS5003;32299;53.366;-1.544;2023-01-29T06:01:39;21;16;
46573;PMS5003;32299;53.366;-1.544;2023-01-29T06:04:07;13;11;
46573;PMS5003;32299;53.366;-1.544;2023-01-29T06:06:34;16;11;
46573;PMS5003;32299;53.366;-1.544;2023-01-29T06:09:01;10;10;
46573;PMS5003;32299;53.366;-1.544;2023-01-29T06:11:29;14;10;
46573;PMS5003;32299;53.366;-1.544;2023-01-29T06:13:55;8;8;
46573;PMS5003;32299;53.366;-1.544;2023-01-29T06:16:23;11;11;
46573;PMS5003;32299;53.366;-1.544;2023-01-29T06:18:50;10;10;
46573;PMS5003;32299;53.366;-1.544;2023-01-29T06:21:17;11;10;
46573;PMS5003;32299;53.366;-1.544;2023-01-29T06:23:44;10;10;
46573;PMS5003;32299;53.366;-1.544;2023-01-29T06:26:12;33;20;
46573;PMS5003;32299;53.366;-1.544;2023-01-29T06:28:41;16;16;
46573;PMS5003;32299;53.366;-1.544;2023-01-29T06:31:08;18;18;
46573;PMS5003;32299;53.366;-1.544;2023-01-29T06:33:37;32;17;
46573;PMS5003;32299;53.366;-1.544;2023-01-29T06:36:04;21;16;
46573;PMS5003;32299;53.366;-1.544;2023-01-29T06:38:32;18;17;
46573;PMS5003;32299;53.366;-1.544;2023-01-29T06:40:59;18;18;
46573;PMS5003;32299;53.366;-1.544;2023-01-29T06:43:35;24;22;
46573;PMS5003;32299;53.366;-1.544;2023-01-29T06:46:05;20;20;
46573;PMS5003;32299;53.366;-1.544;2023-01-29T06:48:33;22;21;
46573;PMS5003;32299;53.366;-1.544;2023-01-29T06:51:01;26;22;
46573;PMS5003;32299;53.366;-1.544;2023-01-29T06:53:30;42;24;
46573;PMS5003;32299;53.366;-1.544;2023-01-29T06:55:59;24;24;
46573;PMS5003;32299;53.366;-1.544;2023-01-29T06:58:26;31;26;
46573;PMS5003;32299;53.366;-1.544;2023-01-29T07:00:53;21;21;
46573;PMS5003;32299;53.366;-1.544;2023-01-29T07:03:20;26;22;
46573;PMS5003;32299;53.366;-1.544;2023-01-29T07:05:50;30;29;
46573;PMS5003;32299;53.366;-1.544;2023-01-29T07:08:17;39;26;
46573;PMS5003;32299;53.366;-1.544;2023-01-29T07:10:44;38;25;
46573;PMS5003;32299;53.366;-1.544;2023-01-29T07:13:12;37;23;
46573;PMS5003;32299;53.366;-1.544;2023-01-29T07:15:39;23;22;
46573;PMS5003;32299;53.366;-1.544;2023-01-29T07:18:06;34;25;
46573;PMS5003;32299;53.366;-1.544;2023-01-29T07:20:33;40;24;
46573;PMS5003;32299;53.366;-1.544;2023-01-29T07:23:00;26;22;
46573;PMS5003;32299;53.366;-1.544;2023-01-29T07:25:27;35;23;
46573;PMS5003;32299;53.366;-1.544;2023-01-29T07:27:55;32;15;
46573;PMS5003;32299;53.366;-1.544;2023-01-29T07:30:25;21;19;
46573;PMS5003;32299;53.366;-1.544;2023-01-29T07:32:52;36;21;
46573;PMS5003;32299;53.366;-1.544;2023-01-29T07:35:19;24;16;
46573;PMS5003;32299;53.366;-1.544;2023-01-29T07:37:47;25;15;
46573;PMS5003;32299;53.366;-1.544;2023-01-29T07:40:15;21;12;
46573;PMS5003;32299;53.366;-1.544;2023-01-29T07:42:43;12;12;
46573;PMS5003;32299;53.366;-1.544;2023-01-29T07:45:10;13;11;
46573;PMS5003;32299;53.366;-1.544;2023-01-29T07:47:38;11;9;
46573;PMS5003;32299;53.366;-1.544;2023-01-29T07:50:05;6;6;
46573;PMS5003;32299;53.366;-1.544;2023-01-29T07:52:33;5;5;
46573;PMS5003;32299;53.366;-1.544;2023-01-29T07:55:00;4;4;
46573;PMS5003;32299;53.366;-1.544;2023-01-29T07:57:26;5;5;
46573;PMS5003;32299;53.366;-1.544;2023-01-29T07:59:53;6;6;
46573;PMS5003;32299;53.366;-1.544;2023-01-29T08:02:20;5;5;
46573;PMS5003;32299;53.366;-1.544;2023-01-29T08:04:47;10;7;
46573;PMS5003;32299;53.366;-1.544;2023-01-29T08:07:14;4;3;
46573;PMS5003;32299;53.366;-1.544;2023-01-29T08:09:42;6;4;
46573;PMS5003;32299;53.366;-1.544;2023-01-29T08:12:09;7;6;
46573;PMS5003;32299;53.366;-1.544;2023-01-29T08:14:36;7;7;
46573;PMS5003;32299;53.366;-1.544;2023-01-29T08:17:03;19;9;
46573;PMS5003;32299;53.366;-1.544;2023-01-29T08:19:30;12;8;
46573;PMS5003;32299;53.366;-1.544;2023-01-29T08:21:58;8;7;
46573;PMS5003;32299;53.366;-1.544;2023-01-29T08:24:25;10;10;
46573;PMS5003;32299;53.366;-1.544;2023-01-29T08:26:52;8;8;
46573;PMS5003;32299;53.366;-1.544;2023-01-29T08:29:19;8;7;
46573;PMS5003;32299;53.366;-1.544;2023-01-29T08:31:46;9;8;
46573;PMS5003;32299;53.366;-1.544;2023-01-29T08:34:13;6;5;
46573;PMS5003;32299;53.366;-1.544;2023-01-29T08:36:40;8;7;
46573;PMS5003;32299;53.366;-1.544;2023-01-29T08:39:07;7;7;
46573;PMS5003;32299;53.366;-1.544;2023-01-29T08:41:34;9;9;
46573;PMS5003;32299;53.366;-1.544;2023-01-29T08:44:01;24;11;
46573;PMS5003;32299;53.366;-1.544;2023-01-29T08:46:29;11;11;
46573;PMS5003;32299;53.366;-1.544;2023-01-29T08:48:56;15;12;
46573;PMS5003;32299;53.366;-1.544;2023-01-29T08:51:24;14;9;
46573;PMS5003;32299;53.366;-1.544;2023-01-29T08:53:51;9;6;
46573;PMS5003;32299;53.366;-1.544;2023-01-29T08:56:18;11;10;
46573;PMS5003;32299;53.366;-1.544;2023-01-29T08:58:46;10;10;
46573;PMS5003;32299;53.366;-1.544;2023-01-29T09:01:13;8;8;
46573;PMS5003;32299;53.366;-1.544;2023-01-29T09:03:40;13;11;
46573;PMS5003;32299;53.366;-1.544;2023-01-29T09:06:07;7;7;
46573;PMS5003;32299;53.366;-1.544;2023-01-29T09:08:35;11;9;
46573;PMS5003;32299;53.366;-1.544;2023-01-29T09:11:02;11;9;
46573;PMS5003;32299;53.366;-1.544;2023-01-29T09:13:30;7;7;
46573;PMS5003;32299;53.366;-1.544;2023-01-29T09:15:57;6;5;
46573;PMS5003;32299;53.366;-1.544;2023-01-29T09:18:26;11;8;
46573;PMS5003;32299;53.366;-1.544;2023-01-29T09:20:53;6;6;
46573;PMS5003;32299;53.366;-1.544;2023-01-29T09:23:20;11;5;
46573;PMS5003;32299;53.366;-1.544;2023-01-29T09:25:48;6;6;
46573;PMS5003;32299;53.366;-1.544;2023-01-29T09:28:15;6;5;
46573;PMS5003;32299;53.366;-1.544;2023-01-29T09:30:42;5;5;
46573;PMS5003;32299;53.366;-1.544;2023-01-29T09:33:10;5;5;
46573;PMS5003;32299;53.366;-1.544;2023-01-29T09:35:39;6;5;
46573;PMS5003;32299;53.366;-1.544;2023-01-29T09:38:06;12;10;
46573;PMS5003;32299;53.366;-1.544;2023-01-29T09:40:34;14;7;
46573;PMS5003;32299;53.366;-1.544;2023-01-29T09:43:19;10;9;
46573;PMS5003;32299;53.366;-1.544;2023-01-29T09:45:52;9;9;
46573;PMS5003;32299;53.366;-1.544;2023-01-29T09:48:22;13;9;
46573;PMS5003;32299;53.366;-1.544;2023-01-29T09:50:54;12;9;
46573;PMS5003;32299;53.366;-1.544;2023-01-29T09:53:26;9;8;
46573;PMS5003;32299;53.366;-1.544;2023-01-29T09:56:01;19;10;
46573;PMS5003;32299;53.366;-1.544;2023-01-29T09:58:32;14;12;
46573;PMS5003;32299;53.366;-1.544;2023-01-29T10:01:07;12;12;
46573;PMS5003;32299;53.366;-1.544;2023-01-29T10:03:47;15;14;
46573;PMS5003;32299;53.366;-1.544;2023-01-29T10:06:32;12;12;
46573;PMS5003;32299;53.366;-1.544;2023-01-29T10:09:17;10;10;
46573;PMS5003;32299;53.366;-1.544;2023-01-29T10:12:12;18;12;
46573;PMS5003;32299;53.366;-1.544;2023-01-29T10:14:54;8;7;
46573;PMS5003;32299;53.366;-1.544;2023-01-29T10:17:33;10;8;
46573;PMS5003;32299;53.366;-1.544;2023-01-29T10:20:19;13;9;
46573;PMS5003;32299;53.366;-1.544;2023-01-29T10:22:59;11;10;
46573;PMS5003;32299;53.366;-1.544;2023-01-29T10:25:35;8;8;
46573;PMS5003;32299;53.366;-1.544;2023-01-29T10:28:10;9;9;
46573;PMS5003;32299;53.366;-1.544;2023-01-29T10:30:43;7;7;
46573;PMS5003;32299;53.366;-1.544;2023-01-29T10:33:15;7;7;
46573;PMS5003;32299;53.366;-1.544;2023-01-29T10:35:47;8;7;
46573;PMS5003;32299;53.366;-1.544;2023-01-29T10:38:22;20;8;
46573;PMS5003;32299;53.366;-1.544;2023-01-29T10:40:55;7;7;
46573;PMS5003;32299;53.366;-1.544;2023-01-29T10:43:33;8;6;
46573;PMS5003;32299;53.366;-1.544;2023-01-29T10:46:11;6;5;
46573;PMS5003;32299;53.366;-1.544;2023-01-29T10:48:48;7;5;
46573;PMS5003;32299;53.366;-1.544;2023-01-29T10:51:30;5;5;
46573;PMS5003;32299;53.366;-1.544;2023-01-29T10:54:16;7;4;
46573;PMS5003;32299;53.366;-1.544;2023-01-29T10:57:01;5;5;
46573;PMS5003;32299;53.366;-1.544;2023-01-29T10:59:40;9;7;
46573;PMS5003;32299;53.366;-1.544;2023-01-29T11:02:21;7;5;
46573;PMS5003;32299;53.366;-1.544;2023-01-29T11:04:48;8;7;
46573;PMS5003;32299;53.366;-1.544;2023-01-29T11:07:16;6;5;
46573;PMS5003;32299;53.366;-1.544;2023-01-29T11:09:49;7;7;
46573;PMS5003;32299;53.366;-1.544;2023-01-29T11:12:21;8;8;
46573;PMS5003;32299;53.366;-1.544;2023-01-29T11:14:52;7;7;
46573;PMS5003;32299;53.366;-1.544;2023-01-29T11:17:23;8;7;
46573;PMS5003;32299;53.366;-1.544;2023-01-29T11:19:51;10;8;
46573;PMS5003;32299;53.366;-1.544;2023-01-29T11:22:21;8;8;
46573;PMS5003;32299;53.366;-1.544;2023-01-29T11:25:06;12;8;
46573;PMS5003;32299;53.366;-1.544;2023-01-29T11:27:38;14;13;
46573;PMS5003;32299;53.366;-1.544;2023-01-29T11:30:14;25;16;
46573;PMS5003;32299;53.366;-1.544;2023-01-29T11:32:48;17;15;
46573;PMS5003;32299;53.366;-1.544;2023-01-29T11:35:19;24;16;
46573;PMS5003;32299;53.366;-1.544;2023-01-29T11:37:47;28;16;
46573;PMS5003;32299;53.366;-1.544;2023-01-29T11:40:46;27;19;
46573;PMS5003;32299;53.366;-1.544;2023-01-29T11:43:18;30;22;
46573;PMS5003;32299;53.366;-1.544;2023-01-29T11:45:49;18;16;
46573;PMS5003;32299;53.366;-1.544;2023-01-29T11:48:19;18;17;
46573;PMS5003;32299;53.366;-1.544;2023-01-29T11:50:50;17;17;
46573;PMS5003;32299;53.366;-1.544;2023-01-29T11:53:21;20;16;
46573;PMS5003;32299;53.366;-1.544;2023-01-29T11:55:53;23;16;
46573;PMS5003;32299;53.366;-1.544;2023-01-29T11:58:23;17;15;
46573;PMS5003;32299;53.366;-1.544;2023-01-29T12:00:54;22;13;
46573;PMS5003;32299;53.366;-1.544;2023-01-29T12:03:26;11;10;
46573;PMS5003;32299;53.366;-1.544;2023-01-29T12:05:57;9;9;
46573;PMS5003;32299;53.366;-1.544;2023-01-29T12:08:27;23;13;
46573;PMS5003;32299;53.366;-1.544;2023-01-29T12:11:09;7;7;
46573;PMS5003;32299;53.366;-1.544;2023-01-29T12:13:37;7;7;
46573;PMS5003;32299;53.366;-1.544;2023-01-29T12:16:10;10;7;
46573;PMS5003;32299;53.366;-1.544;2023-01-29T12:18:43;8;6;
46573;PMS5003;32299;53.366;-1.544;2023-01-29T12:21:17;8;5;
46573;PMS5003;32299;53.366;-1.544;2023-01-29T12:23:51;7;6;
46573;PMS5003;32299;53.366;-1.544;2023-01-29T12:26:24;7;7;
46573;PMS5003;32299;53.366;-1.544;2023-01-29T12:29:02;6;6;
46573;PMS5003;32299;53.366;-1.544;2023-01-29T12:31:41;11;6;
46573;PMS5003;32299;53.366;-1.544;2023-01-29T12:34:14;6;6;
46573;PMS5003;32299;53.366;-1.544;2023-01-29T12:36:46;4;4;
46573;PMS5003;32299;53.366;-1.544;2023-01-29T12:39:18;13;6;
46573;PMS5003;32299;53.366;-1.544;2023-01-29T12:41:48;6;5;
46573;PMS5003;32299;53.366;-1.544;2023-01-29T12:44:18;7;6;
46573;PMS5003;32299;53.366;-1.544;2023-01-29T12:46:51;8;5;
46573;PMS5003;32299;53.366;-1.544;2023-01-29T12:49:21;4;4;
46573;PMS5003;32299;53.366;-1.544;2023-01-29T12:51:52;10;5;
46573;PMS5003;32299;53.366;-1.544;2023-01-29T12:54:26;6;6;
46573;PMS5003;32299;53.366;-1.544;2023-01-29T12:57:01;8;6;
46573;PMS5003;32299;53.366;-1.544;2023-01-29T12:59:35;5;5;
46573;PMS5003;32299;53.366;-1.544;2023-01-29T13:02:10;5;5;
46573;PMS5003;32299;53.366;-1.544;2023-01-29T13:04:46;4;4;
46573;PMS5003;32299;53.366;-1.544;2023-01-29T13:07:19;6;5;
46573;PMS5003;32299;53.366;-1.544;2023-01-29T13:09:52;4;4;
46573;PMS5003;32299;53.366;-1.544;2023-01-29T13:12:22;4;4;
46573;PMS5003;32299;53.366;-1.544;2023-01-29T13:14:51;4;4;
46573;PMS5003;32299;53.366;-1.544;2023-01-29T13:17:23;5;5;
46573;PMS5003;32299;53.366;-1.544;2023-01-29T13:19:56;6;5;
46573;PMS5003;32299;53.366;-1.544;2023-01-29T13:22:27;5;4;
46573;PMS5003;32299;53.366;-1.544;2023-01-29T13:24:58;7;7;
46573;PMS5003;32299;53.366;-1.544;2023-01-29T13:27:27;5;5;
46573;PMS5003;32299;53.366;-1.544;2023-01-29T13:29:56;9;6;
46573;PMS5003;32299;53.366;-1.544;2023-01-29T13:32:25;9;9;
46573;PMS5003;32299;53.366;-1.544;2023-01-29T13:34:54;4;4;
46573;PMS5003;32299;53.366;-1.544;2023-01-29T13:37:26;6;6;
46573;PMS5003;32299;53.366;-1.544;2023-01-29T13:39:57;5;5;
46573;PMS5003;32299;53.366;-1.544;2023-01-29T13:42:34;6;5;
46573;PMS5003;32299;53.366;-1.544;2023-01-29T13:45:06;6;6;
46573;PMS5003;32299;53.366;-1.544;2023-01-29T13:47:42;5;5;
46573;PMS5003;32299;53.366;-1.544;2023-01-29T13:50:12;7;7;
46573;PMS5003;32299;53.366;-1.544;2023-01-29T13:52:51;8;8;
46573;PMS5003;32299;53.366;-1.544;2023-01-29T13:55:21;19;13;
46573;PMS5003;32299;53.366;-1.544;2023-01-29T13:57:53;34;26;
46573;PMS5003;32299;53.366;-1.544;2023-01-29T14:00:53;31;26;
46573;PMS5003;32299;53.366;-1.544;2023-01-29T14:03:41;34;31;
46573;PMS5003;32299;53.366;-1.544;2023-01-29T14:06:10;47;33;
46573;PMS5003;32299;53.366;-1.544;2023-01-29T14:09:00;28;27;
46573;PMS5003;32299;53.366;-1.544;2023-01-29T14:11:32;34;28;
46573;PMS5003;32299;53.366;-1.544;2023-01-29T14:14:00;33;29;
46573;PMS5003;32299;53.366;-1.544;2023-01-29T14:17:15;27;23;
46573;PMS5003;32299;53.366;-1.544;2023-01-29T14:19:45;19;19;
46573;PMS5003;32299;53.366;-1.544;2023-01-29T14:22:18;41;27;
46573;PMS5003;32299;53.366;-1.544;2023-01-29T14:24:47;32;27;
46573;PMS5003;32299;53.366;-1.544;2023-01-29T14:27:20;27;24;
46573;PMS5003;32299;53.366;-1.544;2023-01-29T14:29:49;26;22;
46573;PMS5003;32299;53.366;-1.544;2023-01-29T14:32:17;23;23;
46573;PMS5003;32299;53.366;-1.544;2023-01-29T14:34:47;23;21;
46573;PMS5003;32299;53.366;-1.544;2023-01-29T14:37:18;40;24;
46573;PMS5003;32299;53.366;-1.544;2023-01-29T14:39:47;29;26;
46573;PMS5003;32299;53.366;-1.544;2023-01-29T14:42:18;33;24;
46573;PMS5003;32299;53.366;-1.544;2023-01-29T14:44:59;24;24;
46573;PMS5003;32299;53.366;-1.544;2023-01-29T14:48:36;23;21;
46573;PMS5003;32299;53.366;-1.544;2023-01-29T14:51:06;22;20;
46573;PMS5003;32299;53.366;-1.544;2023-01-29T14:53:44;20;20;
46573;PMS5003;32299;53.366;-1.544;2023-01-29T14:56:20;18;18;
46573;PMS5003;32299;53.366;-1.544;2023-01-29T14:58:54;21;18;
46573;PMS5003;32299;53.366;-1.544;2023-01-29T15:01:31;21;21;
46573;PMS5003;32299;53.366;-1.544;2023-01-29T15:04:03;28;24;
46573;PMS5003;32299;53.366;-1.544;2023-01-29T15:06:40;23;20;
46573;PMS5003;32299;53.366;-1.544;2023-01-29T15:09:11;22;21;
46573;PMS5003;32299;53.366;-1.544;2023-01-29T15:11:46;33;24;
46573;PMS5003;32299;53.366;-1.544;2023-01-29T15:14:21;38;25;
46573;PMS5003;32299;53.366;-1.544;2023-01-29T15:17:00;27;24;
46573;PMS5003;32299;53.366;-1.544;2023-01-29T15:19:40;25;24;
46573;PMS5003;32299;53.366;-1.544;2023-01-29T15:22:09;29;27;
46573;PMS5003;32299;53.366;-1.544;2023-01-29T15:24:38;29;29;
46573;PMS5003;32299;53.366;-1.544;2023-01-29T15:27:10;39;28;
46573;PMS5003;32299;53.366;-1.544;2023-01-29T15:29:40;29;27;
46573;PMS5003;32299;53.366;-1.544;2023-01-29T15:32:11;25;22;
46573;PMS5003;32299;53.366;-1.544;2023-01-29T15:34:44;32;26;
46573;PMS5003;32299;53.366;-1.544;2023-01-29T15:37:23;24;24;
46573;PMS5003;32299;53.366;-1.544;2023-01-29T15:39:51;38;24;
46573;PMS5003;32299;53.366;-1.544;2023-01-29T15:42:19;27;22;
46573;PMS5003;32299;53.366;-1.544;2023-01-29T15:44:46;35;23;
46573;PMS5003;32299;53.366;-1.544;2023-01-29T15:47:14;32;19;
46573;PMS5003;32299;53.366;-1.544;2023-01-29T15:49:41;22;22;
46573;PMS5003;32299;53.366;-1.544;2023-01-29T15:52:13;48;34;
46573;PMS5003;32299;53.366;-1.544;2023-01-29T15:54:43;46;33;
46573;PMS5003;32299;53.366;-1.544;2023-01-29T15:57:16;27;22;
46573;PMS5003;32299;53.366;-1.544;2023-01-29T15:59:47;135;100;
46573;PMS5003;32299;53.366;-1.544;2023-01-29T16:02:17;45;39;
46573;PMS5003;32299;53.366;-1.544;2023-01-29T16:04:52;165;125;
46573;PMS5003;32299;53.366;-1.544;2023-01-29T16:07:20;172;141;
46573;PMS5003;32299;53.366;-1.544;2023-01-29T16:09:48;57;38;
46573;PMS5003;32299;53.366;-1.544;2023-01-29T16:12:17;40;29;
46573;PMS5003;32299;53.366;-1.544;2023-01-29T16:14:45;48;38;
46573;PMS5003;32299;53.366;-1.544;2023-01-29T16:17:22;136;101;
46573;PMS5003;32299;53.366;-1.544;2023-01-29T16:19:55;22;19;
46573;PMS5003;32299;53.366;-1.544;2023-01-29T16:22:23;33;29;
46573;PMS5003;32299;53.366;-1.544;2023-01-29T16:24:51;64;45;
46573;PMS5003;32299;53.366;-1.544;2023-01-29T16:27:20;25;21;
46573;PMS5003;32299;53.366;-1.544;2023-01-29T16:29:50;71;56;
46573;PMS5003;32299;53.366;-1.544;2023-01-29T16:32:17;36;27;
46573;PMS5003;32299;53.366;-1.544;2023-01-29T16:34:45;23;23;
46573;PMS5003;32299;53.366;-1.544;2023-01-29T16:37:17;23;23;
46573;PMS5003;32299;53.366;-1.544;2023-01-29T16:39:48;33;23;